Observations for CAMBRIDGE, United Kingdom (EGSC)

EGSC 231120Z 21008KT 180V250 9999 BKN012 14/12 Q1017
EGSC 231050Z 20009KT 9999 FEW008 BKN019 14/12 Q1017 
EGSC 231020Z 20007KT 170V240 9999 FEW008 BKN019 13/11 Q1017 
EGSC 230950Z 20008KT 9000 FEW006 BKN020 12/11 Q1017 
EGSC 230920Z 20008KT 9999 FEW020 BKN040 12/10 Q1017 
EGSC 230850Z 19008KT 9999 FEW038 SCT042 12/10 Q1017 
EGSC 230750Z 20007KT 180V240 9999 FEW038 BKN042 10/09 Q1017 
EGSC 230720Z 20004KT 180V240 9999 BKN038 10/09 Q1017
EGSC 230650Z 20005KT 9999 BKN043 10/08 Q1017
EGSC 230620Z VRB03KT 9999 BKN048 08/07 Q1017
EGSC 221520Z 29017KT 9999 SCT048 13/03 Q1013
EGSC 221450Z 29017KT 9999 SCT046 13/03 Q1012
EGSC 221420Z 29019KT 9999 SCT042 13/03 Q1012
EGSC 221350Z 28017KT 9999 SCT042 13/04 Q1012
EGSC 221320Z 28018KT 9999 FEW035 BKN040 12/04 Q1012 
EGSC 221250Z 29015KT 9999 FEW035 BKN040 12/04 Q1011 
EGSC 221220Z 28020KT 9999 FEW035 BKN040 12/04 Q1011 
EGSC 221150Z 28018G28KT 9999 SCT035 BKN045 12/05 Q1011  
EGSC 221120Z 28021KT 9999 SCT033 BKN038 12/05 Q1011 
EGSC 221050Z 28019G30KT 9999 SCT034 BKN038 12/05 Q1010